Airfield :
LOGIN :

Register | Disclaimer

   EN    FR    IT 

 










Legend :    VFR   Marginal VFR   IFR   Intensive IFR   Very Intensive IFR
Visi :
Ceiling :
>= 8 km
>= 3000ft
5 to 8 km
1000 to 3000 ft
1500m to 5 km
500 to 1000 ft
800 to 1500m
200 to 500 ft
< 800m
< 200 ft
Symbols :   Thunderstorms  Fog  Heavy snow  Heavy precipitations  Wind > 20 kt
SIGMETs :     Misc.  Thunderstorms  Icing  Turbulence  Mountain Waves  Volcanic Ashes






- Airport Elevation : 138 ft
- IATA code : BIO


LEBB - Bilbao

CURRENT METAR :
  • 200400Z 08004KT 9999 SCT018 07/06 Q1021 NOSIG

EXPIRED METARs :
  • 200330Z 09004KT 9999 SCT020 07/06 Q1021 NOSIG
  • 200300Z VRB01KT 9999 SCT021 07/07 Q1021 NOSIG
  • 200230Z AUTO VRB02KT 9999 FEW023 07/06 Q1021
  • 200200Z AUTO 09003KT CAVOK 07/06 Q1021
  • 200130Z AUTO 08004KT CAVOK 08/07 Q1021
  • 200100Z AUTO 09003KT 070V130 CAVOK 07/06 Q1021
  • 200030Z AUTO VRB02KT CAVOK 08/06 Q1021
  • 200000Z AUTO VRB02KT CAVOK 09/07 Q1021
  • 192330Z AUTO VRB02KT CAVOK 09/07 Q1021

TAF TAF LEBB
Valid from the 20 at 00:00 until the 21 at 00:00 UTC


192300Z 2000/2024 12005KT 9999 FEW020 TX19/2012Z TN06/2006Z
PROB40
TEMPO 2000/2007 3000 BR BKN010
PROB30
TEMPO 2003/2007 0800 BCFG BKN002
TEMPO 2010/2019 04010KT



MET'MAP, your aeronautical weather chart ! - Copyright ORBIFLY December 2007 - Disclaimer

ORBIFLY MET'MAP TEAM :

Programming & Development : Alexandra Zaïnal
Original concept : Baudouin d'Aumeries
Technical & hardware support : Manuel Goepfert
Assistance : Marc-Olivier Méhu




SOURCES & CREDITS :

   NOAA